createdAt,value
2023-03-03T00:01:17.266Z,9.07
2023-03-03T00:03:44.077Z,8.70
2023-03-03T00:06:13.088Z,8.78
2023-03-03T00:08:40.636Z,8.67
2023-03-03T00:11:07.970Z,8.76
2023-03-03T00:13:56.561Z,8.72
2023-03-03T00:16:31.672Z,8.77
2023-03-03T00:18:58.921Z,8.66
2023-03-03T00:21:31.776Z,8.61
2023-03-03T00:24:13.947Z,8.61
2023-03-03T00:26:44.193Z,8.65
2023-03-03T00:29:35.834Z,8.51
2023-03-03T00:32:21.277Z,8.42
2023-03-03T00:34:49.952Z,8.52
2023-03-03T00:37:34.546Z,8.49
2023-03-03T00:40:21.454Z,8.52
2023-03-03T00:43:00.878Z,8.48
2023-03-03T00:45:31.275Z,8.34
2023-03-03T00:47:58.928Z,8.20
2023-03-03T00:50:33.452Z,7.98
2023-03-03T00:53:10.900Z,7.95
2023-03-03T00:55:37.882Z,7.96
2023-03-03T00:58:05.177Z,7.90
2023-03-03T01:00:37.263Z,8.07
2023-03-03T01:03:08.679Z,8.07
2023-03-03T01:05:36.653Z,8.13
2023-03-03T01:08:04.493Z,8.18
2023-03-03T01:10:35.022Z,8.12
2023-03-03T01:13:02.180Z,8.10
2023-03-03T01:15:29.022Z,8.20
2023-03-03T01:17:55.985Z,8.06
2023-03-03T01:20:22.989Z,8.10
2023-03-03T01:22:49.745Z,8.00
2023-03-03T01:25:16.719Z,8.08
2023-03-03T01:27:43.439Z,8.13
2023-03-03T01:30:10.708Z,8.16
2023-03-03T01:32:37.892Z,8.15
2023-03-03T01:35:05.096Z,8.19
2023-03-03T01:37:31.810Z,8.06
2023-03-03T01:39:58.581Z,8.13
2023-03-03T01:42:29.194Z,8.09
2023-03-03T01:45:15.997Z,8.11
2023-03-03T01:48:25.745Z,8.05
2023-03-03T01:50:57.755Z,8.05
2023-03-03T01:53:38.760Z,8.05
2023-03-03T01:56:08.889Z,7.96
2023-03-03T01:58:49.604Z,7.94
2023-03-03T02:01:23.044Z,7.76
2023-03-03T02:03:50.877Z,7.95
2023-03-03T02:06:22.586Z,8.01
2023-03-03T02:09:44.612Z,7.94
2023-03-03T02:12:13.875Z,8.02
2023-03-03T02:14:40.691Z,8.03
2023-03-03T02:17:07.565Z,8.04
2023-03-03T02:19:58.683Z,7.91
2023-03-03T02:22:38.007Z,7.82
2023-03-03T02:25:08.291Z,7.89
2023-03-03T02:27:36.502Z,7.96
2023-03-03T02:30:16.677Z,7.92
2023-03-03T02:32:43.891Z,7.94
2023-03-03T02:35:33.623Z,7.92
2023-03-03T02:38:10.883Z,7.96
2023-03-03T02:40:43.056Z,7.94
2023-03-03T02:43:11.952Z,7.91
2023-03-03T02:45:45.750Z,7.88
2023-03-03T02:48:12.580Z,7.81
2023-03-03T02:50:39.500Z,7.80
2023-03-03T02:53:06.206Z,7.88
2023-03-03T02:55:33.082Z,7.80
2023-03-03T02:57:59.951Z,7.83
2023-03-03T03:00:26.750Z,7.79
2023-03-03T03:02:53.584Z,7.79
2023-03-03T03:05:20.370Z,7.79
2023-03-03T03:07:47.217Z,7.72
2023-03-03T03:10:14.166Z,7.70
2023-03-03T03:12:41.622Z,7.66
2023-03-03T03:15:10.920Z,7.60
2023-03-03T03:17:39.052Z,7.56
2023-03-03T03:20:07.247Z,7.48
2023-03-03T03:22:34.808Z,7.44
2023-03-03T03:25:01.940Z,7.40
2023-03-03T03:27:29.537Z,7.35
2023-03-03T03:29:56.312Z,7.30
2023-03-03T03:32:23.585Z,7.41
2023-03-03T03:34:51.094Z,7.39
2023-03-03T03:37:18.219Z,7.41
2023-03-03T03:39:46.391Z,7.27
2023-03-03T03:42:13.806Z,7.13
2023-03-03T03:44:41.323Z,7.11
2023-03-03T03:47:08.352Z,7.08
2023-03-03T03:49:35.927Z,7.05
2023-03-03T03:52:03.556Z,6.99
2023-03-03T03:54:32.691Z,6.97
2023-03-03T03:56:59.626Z,6.92
2023-03-03T03:59:27.477Z,6.78
2023-03-03T04:01:54.621Z,6.81
2023-03-03T04:04:23.208Z,6.79
2023-03-03T04:06:50.954Z,6.85
2023-03-03T04:09:17.868Z,6.77
2023-03-03T04:11:45.634Z,6.84
2023-03-03T04:14:13.471Z,6.83
2023-03-03T04:16:40.221Z,6.79
2023-03-03T04:19:07.104Z,6.81
2023-03-03T04:21:36.679Z,6.73
2023-03-03T04:24:03.640Z,6.68
2023-03-03T04:26:31.674Z,6.76
2023-03-03T04:29:01.148Z,6.65
2023-03-03T04:31:28.906Z,6.56
2023-03-03T04:33:56.138Z,6.48
2023-03-03T04:36:23.652Z,6.39
2023-03-03T04:38:50.494Z,6.52
2023-03-03T04:41:18.234Z,6.44
2023-03-03T04:43:45.712Z,6.58
2023-03-03T04:46:13.841Z,6.39
2023-03-03T04:48:40.648Z,6.38
2023-03-03T04:51:07.573Z,6.33
2023-03-03T04:53:38.377Z,6.25
2023-03-03T04:56:07.521Z,6.00
2023-03-03T04:58:34.951Z,6.12
2023-03-03T05:01:01.990Z,6.17
2023-03-03T05:03:31.204Z,6.24
2023-03-03T05:05:59.302Z,6.32
2023-03-03T05:08:26.101Z,6.32
2023-03-03T05:10:54.234Z,6.13
2023-03-03T05:13:21.299Z,6.36
2023-03-03T05:15:52.741Z,6.26
2023-03-03T05:18:20.427Z,6.44
2023-03-03T05:20:47.302Z,6.55
2023-03-03T05:23:14.083Z,6.53
2023-03-03T05:25:42.370Z,6.57
2023-03-03T05:28:10.874Z,6.67
2023-03-03T05:30:37.703Z,6.61
2023-03-03T05:33:05.492Z,6.70
2023-03-03T05:35:33.108Z,6.67
2023-03-03T05:38:00.031Z,6.71
2023-03-03T05:40:27.771Z,6.69
2023-03-03T05:42:54.592Z,6.59
2023-03-03T05:45:21.476Z,6.61
2023-03-03T05:47:48.544Z,6.51
2023-03-03T05:50:15.498Z,6.43
2023-03-03T05:52:42.631Z,6.44
2023-03-03T05:55:10.104Z,6.43
2023-03-03T05:57:36.873Z,6.29
2023-03-03T06:00:06.118Z,6.20
2023-03-03T06:02:39.941Z,6.13
2023-03-03T06:05:07.090Z,6.24
2023-03-03T06:07:33.895Z,6.32
2023-03-03T06:10:00.686Z,6.15
2023-03-03T06:12:31.208Z,6.07
2023-03-03T06:14:57.943Z,6.12
2023-03-03T06:17:24.681Z,6.09
2023-03-03T06:19:51.486Z,6.02
2023-03-03T06:22:18.328Z,5.94
2023-03-03T06:24:45.084Z,5.96
2023-03-03T06:27:11.847Z,6.03
2023-03-03T06:29:38.709Z,6.08
2023-03-03T06:32:05.714Z,6.10
2023-03-03T06:34:32.582Z,5.91
2023-03-03T06:36:59.812Z,5.98
2023-03-03T06:39:26.602Z,5.97
2023-03-03T06:41:53.328Z,6.02
2023-03-03T06:44:20.225Z,5.97
2023-03-03T06:46:47.056Z,6.01
2023-03-03T06:49:13.889Z,6.15
2023-03-03T06:51:41.199Z,6.09
2023-03-03T06:54:16.872Z,6.17
2023-03-03T06:56:45.129Z,6.27
2023-03-03T06:59:21.034Z,6.36
2023-03-03T07:01:49.872Z,6.39
2023-03-03T07:04:31.771Z,6.54
2023-03-03T07:07:14.935Z,6.63
2023-03-03T07:09:45.195Z,6.51
2023-03-03T07:12:16.909Z,6.45
2023-03-03T07:14:46.419Z,6.53
2023-03-03T07:17:19.227Z,6.47
2023-03-03T07:19:46.905Z,6.48
2023-03-03T07:22:28.671Z,6.59
2023-03-03T07:25:01.893Z,6.58
2023-03-03T07:27:30.605Z,6.56
2023-03-03T07:30:24.325Z,6.71
2023-03-03T07:32:56.485Z,6.57
2023-03-03T07:35:49.724Z,6.67
2023-03-03T07:38:32.124Z,6.71
2023-03-03T07:41:01.598Z,6.91
2023-03-03T07:43:50.730Z,6.94
2023-03-03T07:46:28.689Z,7.17
2023-03-03T07:48:57.647Z,7.19
2023-03-03T07:51:28.067Z,7.26
2023-03-03T07:54:28.497Z,7.29
2023-03-03T07:57:32.792Z,7.36
2023-03-03T08:00:14.389Z,7.12
2023-03-03T08:02:47.402Z,7.26
2023-03-03T08:05:34.028Z,7.19
2023-03-03T08:08:09.812Z,7.21
2023-03-03T08:10:48.790Z,7.32
2023-03-03T08:13:29.754Z,7.54
2023-03-03T08:16:16.845Z,7.50
2023-03-03T08:18:53.307Z,7.58
2023-03-03T08:21:23.096Z,7.64
2023-03-03T08:23:51.795Z,7.72
2023-03-03T08:26:20.276Z,7.89
2023-03-03T08:28:47.670Z,7.93
2023-03-03T08:31:22.541Z,8.02
2023-03-03T08:33:54.870Z,8.10
2023-03-03T08:36:21.866Z,8.30
2023-03-03T08:38:48.611Z,8.35
2023-03-03T08:41:15.447Z,8.64
2023-03-03T08:43:43.282Z,8.73
2023-03-03T08:46:11.803Z,8.78
2023-03-03T08:48:41.638Z,8.83
2023-03-03T08:51:08.402Z,8.90
2023-03-03T08:53:36.704Z,8.98
2023-03-03T08:56:04.535Z,9.09
2023-03-03T08:58:35.549Z,9.19
2023-03-03T09:01:04.268Z,9.29
2023-03-03T09:03:31.244Z,9.39
2023-03-03T09:05:58.148Z,9.35
2023-03-03T09:08:24.912Z,9.57
2023-03-03T09:10:51.660Z,9.58
2023-03-03T09:13:20.417Z,9.66
2023-03-03T09:15:49.089Z,9.83
2023-03-03T09:18:22.512Z,9.94
2023-03-03T09:20:51.643Z,9.92
2023-03-03T09:23:41.901Z,9.97
2023-03-03T09:26:11.737Z,10.07
2023-03-03T09:28:38.529Z,10.06
2023-03-03T09:31:22.239Z,10.43
2023-03-03T09:33:55.103Z,10.41
2023-03-03T09:36:36.765Z,10.63
2023-03-03T09:39:33.630Z,10.60
2023-03-03T09:42:21.598Z,10.82
2023-03-03T09:45:07.132Z,11.02
2023-03-03T09:48:04.955Z,11.19
2023-03-03T09:50:52.853Z,11.16
2023-03-03T09:53:25.779Z,11.17
2023-03-03T09:56:10.421Z,11.25
2023-03-03T09:58:46.342Z,11.28
2023-03-03T10:01:21.911Z,11.51
2023-03-03T10:04:00.625Z,11.60
2023-03-03T10:06:53.265Z,11.72
2023-03-03T10:09:50.726Z,11.77
2023-03-03T10:12:24.047Z,11.99
2023-03-03T10:15:20.188Z,12.18
2023-03-03T10:18:12.186Z,12.38
2023-03-03T10:20:55.904Z,12.52
2023-03-03T10:24:00.908Z,12.72
2023-03-03T10:26:45.770Z,12.78
2023-03-03T10:29:37.573Z,13.02
2023-03-03T10:32:36.745Z,13.24
2023-03-03T10:35:31.122Z,13.43
2023-03-03T10:38:19.628Z,13.56
2023-03-03T10:40:46.379Z,13.65
2023-03-03T10:43:31.049Z,13.78
2023-03-03T10:46:10.630Z,13.89
2023-03-03T10:49:05.307Z,14.04
2023-03-03T10:51:52.293Z,13.96
2023-03-03T10:54:37.479Z,14.10
2023-03-03T10:57:35.049Z,14.19
2023-03-03T11:00:16.814Z,14.18
2023-03-03T11:03:01.942Z,14.24
2023-03-03T11:06:09.921Z,14.19
2023-03-03T11:09:02.986Z,14.32
2023-03-03T11:11:32.620Z,14.42
2023-03-03T11:14:21.958Z,14.66
2023-03-03T11:17:01.488Z,14.71
2023-03-03T11:19:57.632Z,14.80
2023-03-03T11:22:33.618Z,14.61
2023-03-03T11:25:23.313Z,14.66
2023-03-03T11:28:05.815Z,14.81
2023-03-03T11:30:43.723Z,14.75
2023-03-03T11:33:18.254Z,14.93
2023-03-03T11:35:51.224Z,14.75
2023-03-03T11:38:36.257Z,14.90
2023-03-03T11:41:13.591Z,15.04
2023-03-03T11:44:06.367Z,15.07
2023-03-03T11:46:40.607Z,14.91
2023-03-03T11:49:16.625Z,14.93
2023-03-03T11:51:43.428Z,14.97
2023-03-03T11:54:15.922Z,15.07
2023-03-03T11:56:47.389Z,15.11
2023-03-03T11:59:35.575Z,15.06
2023-03-03T12:02:37.199Z,15.04
2023-03-03T12:05:27.433Z,15.07
2023-03-03T12:08:07.760Z,15.08
2023-03-03T12:10:37.243Z,15.00
2023-03-03T12:13:11.623Z,14.85
2023-03-03T12:16:11.933Z,14.80
2023-03-03T12:19:11.396Z,14.81
2023-03-03T12:21:58.038Z,14.71
2023-03-03T12:24:34.352Z,14.54
2023-03-03T12:27:07.671Z,14.47
2023-03-03T12:29:40.259Z,14.57
2023-03-03T12:32:35.303Z,14.45
2023-03-03T12:35:16.338Z,14.67
2023-03-03T12:38:33.905Z,14.51
2023-03-03T12:41:09.487Z,14.73
2023-03-03T12:44:04.270Z,14.82
2023-03-03T12:46:39.814Z,14.91
2023-03-03T12:49:06.658Z,14.98
2023-03-03T12:51:58.893Z,15.07
2023-03-03T12:54:53.682Z,15.08
2023-03-03T12:57:20.461Z,15.08
2023-03-03T13:00:16.518Z,15.07
2023-03-03T13:02:58.492Z,15.09
2023-03-03T13:05:39.310Z,15.15
2023-03-03T13:08:31.901Z,15.09
2023-03-03T13:11:16.451Z,15.11
2023-03-03T13:13:50.909Z,15.13
2023-03-03T13:16:38.881Z,15.14
2023-03-03T13:19:32.709Z,14.95
2023-03-03T13:22:08.565Z,14.71
2023-03-03T13:24:50.381Z,14.98
2023-03-03T13:27:20.843Z,15.05
2023-03-03T13:30:03.969Z,15.11
2023-03-03T13:32:43.265Z,15.15
2023-03-03T13:35:19.321Z,15.11
2023-03-03T13:37:49.673Z,15.17
2023-03-03T13:40:19.585Z,15.14
2023-03-03T13:43:12.600Z,15.13
2023-03-03T13:45:54.153Z,15.17
2023-03-03T13:48:51.393Z,15.07
2023-03-03T13:51:55.696Z,15.02
2023-03-03T13:54:41.081Z,15.05
2023-03-03T13:57:25.921Z,14.95
2023-03-03T14:00:30.222Z,14.95
2023-03-03T14:03:30.336Z,14.85
2023-03-03T14:06:05.348Z,14.86
2023-03-03T14:08:52.075Z,14.92
2023-03-03T14:11:35.979Z,14.94
2023-03-03T14:14:17.912Z,15.04
2023-03-03T14:16:52.711Z,14.95
2023-03-03T14:19:51.888Z,14.91
2023-03-03T14:22:26.222Z,14.85
2023-03-03T14:24:59.473Z,14.91
2023-03-03T14:27:34.271Z,14.72
2023-03-03T14:30:29.920Z,14.87
2023-03-03T14:33:05.939Z,14.82
2023-03-03T14:35:39.254Z,14.90
2023-03-03T14:38:18.287Z,14.93
2023-03-03T14:40:47.322Z,14.92
2023-03-03T14:43:36.975Z,14.87
2023-03-03T14:46:15.725Z,14.84
2023-03-03T14:48:55.185Z,14.75
2023-03-03T14:51:30.213Z,14.76
2023-03-03T14:53:57.609Z,14.72
2023-03-03T14:56:25.022Z,14.68
2023-03-03T14:58:54.375Z,14.79
2023-03-03T15:01:22.643Z,14.74
2023-03-03T15:03:59.184Z,14.63
2023-03-03T15:06:47.824Z,14.70
2023-03-03T15:09:26.940Z,14.72
2023-03-03T15:11:56.785Z,14.82
2023-03-03T15:14:37.987Z,14.85
2023-03-03T15:17:22.815Z,14.82
2023-03-03T15:20:26.974Z,14.73
2023-03-03T15:23:22.967Z,14.78
2023-03-03T15:26:06.692Z,14.86
2023-03-03T15:29:08.034Z,14.81
2023-03-03T15:31:49.948Z,14.82
2023-03-03T15:34:37.224Z,14.81
2023-03-03T15:37:07.050Z,14.91
2023-03-03T15:40:03.881Z,14.98
2023-03-03T15:42:42.876Z,14.98
2023-03-03T15:45:33.857Z,14.93
2023-03-03T15:48:35.982Z,14.88
2023-03-03T15:51:30.614Z,14.91
2023-03-03T15:54:06.401Z,14.86
2023-03-03T15:56:50.745Z,14.81
2023-03-03T15:59:26.528Z,14.92
2023-03-03T16:02:06.910Z,14.88
2023-03-03T16:04:39.084Z,14.92
2023-03-03T16:07:17.490Z,14.89
2023-03-03T16:10:24.977Z,14.89
2023-03-03T16:13:16.290Z,14.86
2023-03-03T16:15:53.570Z,14.61
2023-03-03T16:18:39.802Z,14.70
2023-03-03T16:21:18.556Z,14.61
2023-03-03T16:23:49.950Z,14.59
2023-03-03T16:26:40.866Z,14.67
2023-03-03T16:29:36.101Z,14.62
2023-03-03T16:32:13.898Z,14.62
2023-03-03T16:35:00.024Z,14.51
2023-03-03T16:37:48.157Z,14.46
2023-03-03T16:40:22.229Z,14.54
2023-03-03T16:43:14.674Z,14.46
2023-03-03T16:45:41.877Z,14.41
2023-03-03T16:48:37.507Z,14.15
2023-03-03T16:51:26.136Z,14.22
2023-03-03T16:54:07.008Z,14.04
2023-03-03T16:56:37.005Z,14.21
2023-03-03T16:59:14.018Z,14.20
2023-03-03T17:02:09.677Z,14.22
2023-03-03T17:04:39.160Z,14.00
2023-03-03T17:07:46.288Z,13.98
2023-03-03T17:10:25.043Z,13.88
2023-03-03T17:13:18.466Z,13.81
2023-03-03T17:15:54.062Z,13.77
2023-03-03T17:18:44.835Z,13.82
2023-03-03T17:21:56.179Z,13.75
2023-03-03T17:24:41.530Z,13.76
2023-03-03T17:27:23.724Z,13.73
2023-03-03T17:30:02.470Z,13.69
2023-03-03T17:32:49.723Z,13.64
2023-03-03T17:35:31.918Z,13.58
2023-03-03T17:37:58.614Z,13.57
2023-03-03T17:40:48.634Z,13.50
2023-03-03T17:43:21.757Z,13.50
2023-03-03T17:45:52.779Z,13.46
2023-03-03T17:48:50.377Z,13.44
2023-03-03T17:51:38.965Z,13.40
2023-03-03T17:54:23.428Z,13.24
2023-03-03T17:57:28.113Z,13.24
2023-03-03T18:00:10.710Z,13.19
2023-03-03T18:02:56.384Z,13.11
2023-03-03T18:05:39.132Z,12.94
2023-03-03T18:08:28.986Z,13.01
2023-03-03T18:11:14.195Z,12.91
2023-03-03T18:13:49.874Z,12.97
2023-03-03T18:16:25.964Z,12.95
2023-03-03T18:18:59.909Z,12.95
2023-03-03T18:21:26.691Z,12.94
2023-03-03T18:24:25.427Z,12.98
2023-03-03T18:26:56.191Z,12.90
2023-03-03T18:29:28.121Z,12.93
2023-03-03T18:31:58.920Z,12.97
2023-03-03T18:34:33.714Z,12.94
2023-03-03T18:37:02.477Z,12.95
2023-03-03T18:39:50.266Z,12.97
2023-03-03T18:42:17.036Z,12.94
2023-03-03T18:44:44.864Z,12.92
2023-03-03T18:47:11.971Z,12.97
2023-03-03T18:50:18.609Z,12.89
2023-03-03T18:53:14.235Z,12.86
2023-03-03T18:55:44.020Z,12.84
2023-03-03T18:58:13.737Z,12.72
2023-03-03T19:00:50.561Z,12.73
2023-03-03T19:03:49.343Z,12.75
2023-03-03T19:06:48.279Z,12.71
2023-03-03T19:09:37.962Z,12.70
2023-03-03T19:12:08.462Z,12.65
2023-03-03T19:14:46.799Z,12.65
2023-03-03T19:17:16.642Z,12.60
2023-03-03T19:20:08.909Z,12.55
2023-03-03T19:23:04.940Z,12.62
2023-03-03T19:25:32.664Z,12.60
2023-03-03T19:28:01.993Z,12.59
2023-03-03T19:30:41.218Z,12.62
2023-03-03T19:33:12.239Z,12.66
2023-03-03T19:35:59.398Z,12.54
2023-03-03T19:39:13.934Z,12.59
2023-03-03T19:42:18.152Z,12.50
2023-03-03T19:44:55.879Z,12.43
2023-03-03T19:47:26.667Z,12.45
2023-03-03T19:50:05.228Z,12.37
2023-03-03T19:52:38.082Z,12.46
2023-03-03T19:55:23.388Z,12.48
2023-03-03T19:58:17.703Z,12.51
2023-03-03T20:00:49.914Z,12.34
2023-03-03T20:03:35.367Z,12.37
2023-03-03T20:06:17.317Z,12.29
2023-03-03T20:08:51.295Z,12.30
2023-03-03T20:11:48.064Z,12.26
2023-03-03T20:14:46.046Z,12.02
2023-03-03T20:17:35.269Z,12.06
2023-03-03T20:20:26.060Z,11.81
2023-03-03T20:23:00.637Z,11.62
2023-03-03T20:25:30.458Z,11.62
2023-03-03T20:28:25.852Z,11.66
2023-03-03T20:31:20.840Z,11.82
2023-03-03T20:33:56.059Z,11.56
2023-03-03T20:36:52.282Z,11.47
2023-03-03T20:39:43.302Z,11.44
2023-03-03T20:42:42.154Z,11.39
2023-03-03T20:45:27.588Z,11.39
2023-03-03T20:48:17.841Z,11.54
2023-03-03T20:50:59.105Z,11.59
2023-03-03T20:53:51.238Z,11.57
2023-03-03T20:56:30.108Z,11.46
2023-03-03T20:59:15.076Z,11.32
2023-03-03T21:02:12.726Z,11.37
2023-03-03T21:04:39.763Z,11.33
2023-03-03T21:07:06.737Z,11.39
2023-03-03T21:09:38.894Z,11.23
2023-03-03T21:12:25.746Z,11.08
2023-03-03T21:15:07.283Z,10.96
2023-03-03T21:17:34.405Z,10.57
2023-03-03T21:20:31.848Z,10.52
2023-03-03T21:23:00.757Z,10.43
2023-03-03T21:25:47.993Z,10.41
2023-03-03T21:28:28.013Z,10.29
2023-03-03T21:31:10.134Z,10.48
2023-03-03T21:33:53.814Z,10.55
2023-03-03T21:36:24.777Z,10.33
2023-03-03T21:38:53.650Z,10.24
2023-03-03T21:41:20.932Z,10.21
2023-03-03T21:43:50.803Z,10.25
2023-03-03T21:46:23.111Z,10.22
2023-03-03T21:48:50.972Z,10.24
2023-03-03T21:51:17.806Z,10.21
2023-03-03T21:53:45.789Z,10.08
2023-03-03T21:56:15.948Z,9.93
2023-03-03T21:58:43.306Z,9.87
2023-03-03T22:01:10.479Z,9.93
2023-03-03T22:03:37.668Z,9.81
2023-03-03T22:06:04.733Z,9.89
2023-03-03T22:08:31.494Z,10.04
2023-03-03T22:10:58.326Z,9.94
2023-03-03T22:13:27.342Z,9.99
2023-03-03T22:15:55.202Z,9.86
2023-03-03T22:18:22.100Z,9.62
2023-03-03T22:20:53.298Z,9.43
2023-03-03T22:23:20.150Z,9.48
2023-03-03T22:25:47.896Z,9.51
2023-03-03T22:28:14.820Z,9.52
2023-03-03T22:30:41.514Z,9.45
2023-03-03T22:33:08.318Z,9.40
2023-03-03T22:35:35.206Z,9.31
2023-03-03T22:38:02.084Z,9.38
2023-03-03T22:40:29.128Z,9.42
2023-03-03T22:42:55.924Z,9.52
2023-03-03T22:45:22.627Z,9.58
2023-03-03T22:47:49.342Z,9.55
2023-03-03T22:50:17.082Z,9.53
2023-03-03T22:52:43.932Z,9.54
2023-03-03T22:55:11.519Z,9.56
2023-03-03T22:57:38.315Z,9.59
2023-03-03T23:00:09.060Z,9.58
2023-03-03T23:02:35.894Z,9.64
2023-03-03T23:05:08.293Z,9.56
2023-03-03T23:07:35.873Z,9.65
2023-03-03T23:10:04.736Z,9.61
2023-03-03T23:12:31.565Z,9.61
2023-03-03T23:14:58.394Z,9.67
2023-03-03T23:17:25.397Z,9.64
2023-03-03T23:19:52.345Z,9.70
2023-03-03T23:22:19.321Z,9.47
2023-03-03T23:24:46.089Z,9.59
2023-03-03T23:27:12.848Z,9.58
2023-03-03T23:29:39.635Z,9.56
2023-03-03T23:32:06.453Z,9.49
2023-03-03T23:34:33.510Z,9.53
2023-03-03T23:37:00.394Z,9.59
2023-03-03T23:39:27.171Z,9.65
2023-03-03T23:41:53.933Z,9.64
2023-03-03T23:44:20.731Z,9.60
2023-03-03T23:46:47.497Z,9.57
2023-03-03T23:49:14.431Z,9.51
2023-03-03T23:51:41.274Z,9.51
2023-03-03T23:54:07.992Z,9.50
2023-03-03T23:56:34.911Z,9.41
2023-03-03T23:59:01.669Z,9.39
